This is the latest recevied weather packets stored in our database for station/object IZ3MEZ-13. If no packets are shown the sender has not sent any weather packets the latest 10 day(s).
| Time | Temp. | Humidity | Pressure | Rain* | Wind** | Luminosity | Snow |
|---|---|---|---|---|---|---|---|
| 1777667434 | 10.56° C | 57% | 1027 hPa | 0 mm | - | 0 W/m² | - |
| 1777666820 | 10.56° C | 57% | 1027 hPa | 0 mm | - | 0 W/m² | - |
| 1777666525 | 10.56° C | 56% | 1027 hPa | 0 mm | - | 0 W/m² | - |
| 1777665923 | 11.11° C | 55% | 1026.9 hPa | 0 mm | - | 0 W/m² | - |
| 1777665320 | 11.11° C | 55% | 1026.9 hPa | 0 mm | - | 0 W/m² | - |
| 1777664717 | 11.67° C | 53% | 1026.8 hPa | 0 mm | - | 0 W/m² | - |
| 1777663522 | 12.22° C | 49% | 1026.7 hPa | 0 mm | - | 0 W/m² | - |
| 1777662925 | 12.78° C | 48% | 1026.7 hPa | 0 mm | - | 0 W/m² | - |
| 1777662316 | 13.33° C | 48% | 1026.6 hPa | 0 mm | - | 0 W/m² | - |
| 1777661723 | 13.89° C | 46% | 1026.5 hPa | 0 mm | - | 0 W/m² | - |
| 1777661124 | 14.44° C | 43% | 1026.4 hPa | 0 mm | - | 0 W/m² | - |
| 1777660529 | 15° C | 43% | 1026.3 hPa | 0 mm | - | 0 W/m² | - |
| 1777659919 | 16.11° C | 40% | 1026.4 hPa | 0 mm | - | 0 W/m² | - |
| 1777659320 | 17.22° C | 38% | 1026.2 hPa | 0 mm | - | 2 W/m² | - |
| 1777658721 | 17.78° C | 36% | 1026.2 hPa | 0 mm | - | 6 W/m² | - |
| 1777658123 | 18.33° C | 34% | 1026 hPa | 0 mm | - | 10 W/m² | - |
| 1777657518 | 18.33° C | 34% | 1026 hPa | 0 mm | - | 14 W/m² | - |
| 1777656921 | 18.89° C | 34% | 1026.1 hPa | 0 mm | - | 17 W/m² | - |
| 1777656320 | 19.44° C | 33% | 1026.1 hPa | 0 mm | - | 20 W/m² | - |
| 1777655716 | 19.44° C | 32% | 1026 hPa | 0 mm | - | 24 W/m² | - |
| 1777655117 | 20° C | 31% | 1026.2 hPa | 0 mm | - | 66 W/m² | - |
| 1777654526 | 20° C | 31% | 1026.1 hPa | 0 mm | - | 77 W/m² | - |
| 1777653918 | 20.56° C | 30% | 1026.2 hPa | 0 mm | - | 100 W/m² | - |
| 1777653319 | 20.56° C | 29% | 1026.3 hPa | 0 mm | - | 127 W/m² | - |
| 1777652734 | 21.11° C | 29% | 1026.3 hPa | 0 mm | - | 148 W/m² | - |
* Rain latest hour (hover to see other rain measurements)
** Current wind speed in m/s (hover to see current wind gust speed)